Weather at Lawrence Municipal Airport

Public forecast

Using degrees Fahrenheit for public forecast. Weather courtesy of forecast.io.

Current aviation weather report (METAR) for Lawrence Municipal Airport

Retrieved 2021/09/20 01:52 UTC (16 minutes ago):

KLWC 200152Z AUTO 12006KT 10SM CLR 24/19 A2985 RMK AO1 SLP100 T02390194

Closest aviation forecast (TAF) to Lawrence Municipal Airport

Closest forecast is New Century Aircenter Airport, 18.7 nm (34.6 km) SE. Retrieved 2021-09-20 00:22 UTC (2 hours ago):

TAF KIXD 192320Z 2000/2024 15010KT P6SM SKC FM201600 18015G25KT P6SM BKN150